Time;durP1;ratioP1;P1;durP2;ratioP2;P2;SDS_P1;SDS_P2;PMS_P1;PMS_P2;Temp;Humidity;BMP_temperature;BMP_pressure;BME280_temperature;BME280_humidity;BME280_pressure;Samples;Min_cycle;Max_cycle;Signal;HPM_P1;HPM_P2
2023/07/14 00:09:00;;;;;;;5.60;2.83;;;29.50;33.10;;;;;;21094165;28;20082;-57
2023/07/14 00:19:01;;;;;;;3.67;2.38;;;29.60;31.80;;;;;;21092292;28;20040;-55
2023/07/14 00:29:14;;;;;;;3.20;2.20;;;29.50;32.00;;;;;;21091490;28;20551;-57
2023/07/14 00:39:14;;;;;;;5.70;2.92;;;29.50;31.40;;;;;;21092083;28;20512;-56
2023/07/14 00:49:35;;;;;;;6.25;2.90;;;29.40;32.00;;;;;;21091311;28;20401;-57
2023/07/14 00:59:36;;;;;;;7.77;3.40;;;29.30;32.50;;;;;;21090897;28;20044;-57
2023/07/14 01:09:39;;;;;;;6.25;3.10;;;29.10;32.90;;;;;;21087644;28;20044;-57
2023/07/14 01:19:59;;;;;;;4.75;2.95;;;29.10;34.40;;;;;;21088485;28;20524;-57
2023/07/14 01:30:00;;;;;;;4.82;3.38;;;28.90;35.30;;;;;;21087982;28;20141;-56
2023/07/14 01:40:08;;;;;;;4.35;2.60;;;28.50;35.60;;;;;;21085782;28;20408;-56
2023/07/14 01:50:33;;;;;;;5.57;2.63;;;28.30;35.30;;;;;;21086201;28;20062;-56
2023/07/14 02:00:35;;;;;;;7.18;2.30;;;28.10;35.30;;;;;;21085320;28;20044;-57
2023/07/14 02:10:36;;;;;;;5.60;2.88;;;27.90;36.10;;;;;;21084543;28;20489;-57
2023/07/14 02:20:38;;;;;;;;;;;27.60;36.70;;;;;;21083200;28;20078;-56
2023/07/14 02:30:42;;;;;;;4.90;3.20;;;27.50;36.70;;;;;;21083205;28;19926;-57
2023/07/14 02:41:07;;;;;;;6.05;3.00;;;27.40;37.40;;;;;;21080964;28;20052;-55
2023/07/14 02:51:08;;;;;;;6.82;3.03;;;27.30;37.80;;;;;;21080384;28;20131;-56
2023/07/14 03:01:09;;;;;;;6.43;2.58;;;27.20;38.30;;;;;;21081240;28;20078;-57
2023/07/14 03:11:10;;;;;;;9.43;2.80;;;27.10;38.30;;;;;;21080933;28;20123;-57
2023/07/14 03:21:11;;;;;;;8.63;2.85;;;27.00;38.40;;;;;;21077461;28;20143;-57
2023/07/14 03:31:12;;;;;;;5.33;3.13;;;26.90;38.30;;;;;;21078686;28;20388;-56
2023/07/14 03:41:14;;;;;;;9.57;2.93;;;27.00;37.20;;;;;;21077312;28;20124;-57
2023/07/14 03:51:15;;;;;;;7.38;2.95;;;27.10;35.40;;;;;;21078731;28;20293;-57
2023/07/14 04:01:15;;;;;;;6.57;2.97;;;27.20;34.60;;;;;;21077813;28;20129;-57
2023/07/14 04:11:16;;;;;;;8.57;3.67;;;27.20;34.90;;;;;;21076191;28;20040;-58
2023/07/14 04:21:24;;;;;;;7.43;2.90;;;27.10;35.20;;;;;;21076561;28;20063;-56
2023/07/14 04:31:24;;;;;;;6.93;3.03;;;27.00;35.10;;;;;;21076782;28;20056;-57
2023/07/14 04:41:25;;;;;;;8.33;2.77;;;26.90;35.30;;;;;;21086050;28;20123;-57
2023/07/14 04:51:26;;;;;;;6.17;2.97;;;26.70;36.10;;;;;;21090856;28;20051;-57
2023/07/14 05:01:30;;;;;;;;;;;26.60;37.00;;;;;;21089365;28;20081;-56
2023/07/14 05:11:31;;;;;;;8.60;3.78;;;26.40;37.60;;;;;;21089142;28;20326;-56
2023/07/14 05:21:32;;;;;;;8.63;3.33;;;26.40;38.20;;;;;;21087825;28;20076;-56
2023/07/14 05:31:32;;;;;;;11.57;3.47;;;26.20;38.90;;;;;;21087157;28;20123;-57
2023/07/14 05:41:33;;;;;;;14.27;4.10;;;26.30;40.10;;;;;;21086439;28;20040;-58
2023/07/14 05:51:34;;;;;;;8.77;4.30;;;26.20;41.10;;;;;;21085383;28;20051;-58
2023/07/14 06:01:34;;;;;;;17.83;5.20;;;26.20;42.00;;;;;;21085032;28;20127;-57
2023/07/14 06:11:35;;;;;;;15.93;6.10;;;26.30;44.70;;;;;;21083062;28;20050;-57
2023/07/14 06:21:36;;;;;;;13.00;5.63;;;26.30;48.20;;;;;;21082203;28;20103;-57
2023/07/14 06:31:37;;;;;;;18.03;7.73;;;26.40;50.30;;;;;;21080950;28;20131;-57
2023/07/14 06:41:38;;;;;;;19.73;8.13;;;26.30;52.60;;;;;;21080438;28;20127;-57
2023/07/14 06:51:39;;;;;;;19.77;7.53;;;26.30;56.40;;;;;;21080828;28;20397;-58
2023/07/14 07:01:39;;;;;;;25.50;8.43;;;26.40;56.70;;;;;;21079451;28;20054;-57
2023/07/14 07:11:40;;;;;;;18.57;7.83;;;26.80;57.00;;;;;;21078462;28;20059;-59
2023/07/14 07:21:41;;;;;;;22.08;8.73;;;27.60;55.00;;;;;;21078436;28;20536;-58
2023/07/14 07:31:42;;;;;;;19.83;8.55;;;28.10;54.10;;;;;;21076086;28;20044;-58
2023/07/14 07:41:42;;;;;;;17.17;8.52;;;28.60;52.70;;;;;;21078489;28;20117;-59
2023/07/14 07:51:43;;;;;;;16.98;7.95;;;28.60;53.40;;;;;;21077152;28;20048;-58
2023/07/14 08:01:45;;;;;;;23.70;8.18;;;29.10;52.30;;;;;;21076080;28;20079;-58
2023/07/14 08:11:47;;;;;;;18.00;7.95;;;29.30;51.80;;;;;;21079645;28;20048;-59
2023/07/14 08:21:48;;;;;;;16.30;8.23;;;29.70;50.60;;;;;;21092197;28;20055;-58
2023/07/14 08:31:49;;;;;;;13.82;7.25;;;29.90;50.50;;;;;;21091056;28;20404;-59
2023/07/14 08:41:56;;;;;;;18.33;7.72;;;30.30;49.60;;;;;;21090204;28;20059;-59
2023/07/14 08:52:03;;;;;;;17.23;6.85;;;30.40;49.10;;;;;;21090686;28;20102;-58
2023/07/14 09:02:22;;;;;;;18.02;6.80;;;30.70;47.00;;;;;;21088728;28;20055;-57
2023/07/14 09:12:25;;;;;;;11.98;7.00;;;31.00;45.70;;;;;;21088542;28;20431;-58
2023/07/14 09:22:39;;;;;;;11.23;6.07;;;31.20;45.50;;;;;;21086111;28;20051;-58
2023/07/14 09:32:43;;;;;;;13.18;6.43;;;31.30;44.00;;;;;;21087771;28;20048;-57
2023/07/14 09:42:50;;;;;;;17.13;5.00;;;31.60;43.30;;;;;;21085506;28;20047;-58
2023/07/14 09:53:01;;;;;;;11.63;5.38;;;31.70;40.30;;;;;;21085704;28;20119;-59
2023/07/14 10:03:08;;;;;;;7.97;4.88;;;32.00;39.40;;;;;;21085397;28;20062;-57
2023/07/14 10:13:18;;;;;;;11.27;4.88;;;32.20;39.10;;;;;;21083742;28;20044;-59
2023/07/14 10:23:21;;;;;;;8.95;4.38;;;32.60;36.10;;;;;;21081943;28;20167;-59
2023/07/14 10:33:49;;;;;;;7.68;3.60;;;32.90;35.20;;;;;;21079118;28;20044;-59
2023/07/14 10:43:59;;;;;;;10.18;5.07;;;33.20;32.80;;;;;;21081782;28;20055;-59
2023/07/14 10:54:26;;;;;;;7.00;3.30;;;33.60;29.80;;;;;;21081232;28;20054;-59
2023/07/14 11:04:34;;;;;;;6.53;4.38;;;33.80;28.70;;;;;;21080076;28;20052;-59
2023/07/14 11:14:58;;;;;;;7.15;2.80;;;33.80;28.40;;;;;;21078391;28;20063;-58
2023/07/14 11:25:13;;;;;;;5.63;2.75;;;34.00;28.10;;;;;;21078846;28;20044;-59
2023/07/14 11:35:37;;;;;;;3.30;2.00;;;34.20;27.00;;;;;;21078186;28;20440;-59
2023/07/14 11:45:39;;;;;;;4.40;2.05;;;34.50;25.30;;;;;;21079170;28;20497;-58
2023/07/14 11:55:45;;;;;;;6.07;2.13;;;34.70;24.90;;;;;;21095475;28;20134;-57
2023/07/14 12:05:46;;;;;;;6.20;1.85;;;34.70;24.50;;;;;;21093379;28;20040;-58
2023/07/14 12:15:55;;;;;;;4.28;1.83;;;35.10;23.50;;;;;;21092203;28;20117;-60
2023/07/14 12:26:12;;;;;;;4.20;1.80;;;35.30;23.00;;;;;;21093180;28;20057;-61
2023/07/14 12:36:18;;;;;;;6.10;1.70;;;35.30;22.80;;;;;;21090869;28;20040;-60
2023/07/14 12:46:35;;;;;;;1.50;1.10;;;35.20;22.40;;;;;;21090523;28;20040;-57
2023/07/14 12:56:35;;;;;;;6.35;1.50;;;35.50;22.70;;;;;;21089680;28;20101;-59
2023/07/14 13:06:37;;;;;;;3.67;1.70;;;35.60;21.70;;;;;;21089809;28;20044;-58
2023/07/14 13:16:38;;;;;;;4.55;1.50;;;35.50;22.40;;;;;;21088393;28;20048;-58
2023/07/14 13:27:10;;;;;;;2.05;1.30;;;35.60;21.90;;;;;;21088708;28;20052;-59
2023/07/14 13:37:12;;;;;;;4.30;1.60;;;35.80;21.80;;;;;;21084724;28;20109;-58
2023/07/14 13:47:18;;;;;;;2.15;1.00;;;35.70;21.50;;;;;;21086485;28;20051;-57
2023/07/14 13:57:19;;;;;;;5.63;1.92;;;35.80;20.80;;;;;;21085762;28;20039;-57
2023/07/14 14:07:20;;;;;;;4.00;1.20;;;36.00;21.20;;;;;;21082980;28;20048;-58
2023/07/14 14:17:36;;;;;;;4.13;1.10;;;36.10;21.20;;;;;;21084070;28;20048;-59
2023/07/14 14:27:36;;;;;;;2.85;1.48;;;36.00;21.00;;;;;;21081333;28;20138;-58
2023/07/14 14:37:38;;;;;;;1.63;0.88;;;36.10;20.50;;;;;;21080459;28;20086;-58
2023/07/14 14:47:38;;;;;;;2.85;1.15;;;36.20;19.90;;;;;;21080889;28;20170;-58
2023/07/14 14:57:42;;;;;;;3.97;2.47;;;36.00;20.90;;;;;;21080687;28;20076;-58
2023/07/14 15:07:43;;;;;;;3.55;1.20;;;36.10;20.60;;;;;;21080198;28;20338;-57
2023/07/14 15:17:44;;;;;;;1.33;1.05;;;36.10;20.10;;;;;;21079666;28;20051;-58
2023/07/14 15:27:47;;;;;;;1.83;1.10;;;35.80;18.90;;;;;;21077466;28;20051;-58
2023/07/14 15:37:50;;;;;;;2.40;1.17;;;35.70;19.70;;;;;;21077387;28;20041;-58
2023/07/14 15:47:52;;;;;;;2.95;1.20;;;35.80;19.40;;;;;;21078268;28;20044;-58
2023/07/14 15:57:53;;;;;;;4.75;3.22;;;35.70;19.70;;;;;;21076981;28;20090;-60
2023/07/14 16:07:55;;;;;;;2.55;1.25;;;36.00;20.30;;;;;;21077819;28;20404;-60
2023/07/14 16:17:56;;;;;;;2.47;1.65;;;35.90;19.30;;;;;;21076160;28;20051;-61
2023/07/14 16:27:57;;;;;;;2.35;1.45;;;35.60;20.60;;;;;;21077469;28;20048;-61
2023/07/14 16:38:01;;;;;;;2.88;1.88;;;35.80;20.60;;;;;;21087270;28;20048;-60
2023/07/14 16:48:01;;;;;;;3.70;1.70;;;35.70;21.30;;;;;;21090605;28;20123;-60
2023/07/14 16:58:02;;;;;;;2.20;1.50;;;35.80;21.90;;;;;;21089872;28;20527;-59
2023/07/14 17:08:15;;;;;;;2.25;1.60;;;35.80;21.90;;;;;;21090005;28;20051;-66
2023/07/14 17:18:19;;;;;;;3.58;1.85;;;35.50;22.40;;;;;;21089488;28;20113;-57
2023/07/14 17:28:24;;;;;;;4.00;1.40;;;35.50;22.40;;;;;;21086611;28;20413;-58
2023/07/14 17:38:29;;;;;;;5.85;1.70;;;35.20;22.90;;;;;;21087690;28;20040;-57
2023/07/14 17:48:30;;;;;;;3.42;1.17;;;35.10;24.10;;;;;;21086529;28;20070;-59
2023/07/14 17:58:32;;;;;;;3.63;1.48;;;34.80;22.90;;;;;;21086591;28;20044;-60
2023/07/14 18:08:34;;;;;;;2.20;1.58;;;34.80;22.80;;;;;;21083974;28;20044;-60
2023/07/14 18:18:38;;;;;;;2.85;1.65;;;34.70;22.70;;;;;;21085631;28;20036;-60
2023/07/14 18:28:39;;;;;;;2.05;1.48;;;34.60;23.00;;;;;;21082688;28;20066;-57
2023/07/14 18:38:40;;;;;;;3.10;1.80;;;34.60;23.50;;;;;;21083229;28;20048;-57
2023/07/14 18:48:41;;;;;;;3.15;1.60;;;34.40;23.50;;;;;;21082611;28;20043;-58
2023/07/14 18:58:42;;;;;;;3.40;1.70;;;34.20;23.50;;;;;;21081338;28;20059;-57
2023/07/14 19:08:43;;;;;;;2.33;1.30;;;34.10;23.60;;;;;;21081301;28;20055;-58
2023/07/14 19:18:44;;;;;;;3.38;1.58;;;33.90;24.00;;;;;;21080693;28;20447;-57
2023/07/14 19:28:48;;;;;;;2.05;1.60;;;33.60;24.10;;;;;;21081407;28;20105;-59
2023/07/14 19:38:50;;;;;;;4.70;1.85;;;33.50;24.20;;;;;;21080380;28;20079;-57
2023/07/14 19:48:51;;;;;;;5.50;1.63;;;33.30;24.30;;;;;;21078512;28;20052;-58
2023/07/14 19:58:53;;;;;;;6.93;2.22;;;33.10;24.20;;;;;;21077622;28;20044;-57
2023/07/14 20:08:56;;;;;;;3.17;1.55;;;32.90;24.10;;;;;;21085203;28;20066;-57
2023/07/14 20:18:57;;;;;;;3.38;2.13;;;32.80;23.80;;;;;;21095191;28;20079;-57
2023/07/14 20:28:58;;;;;;;5.55;2.20;;;32.60;23.50;;;;;;21092584;28;20052;-59
2023/07/14 20:38:59;;;;;;;4.85;2.90;;;32.40;23.30;;;;;;21093422;28;20078;-57
2023/07/14 20:49:04;;;;;;;7.65;2.80;;;32.30;23.50;;;;;;21091801;28;20076;-57
2023/07/14 20:59:05;;;;;;;4.13;2.65;;;32.10;23.60;;;;;;21091979;28;20401;-57
2023/07/14 21:09:08;;;;;;;10.32;2.90;;;32.00;23.80;;;;;;21090280;28;20066;-57
2023/07/14 21:19:09;;;;;;;7.63;2.63;;;32.00;23.90;;;;;;21089445;28;20044;-57
2023/07/14 21:29:11;;;;;;;7.75;3.08;;;31.80;24.00;;;;;;21087795;28;20121;-58
2023/07/14 21:39:21;;;;;;;4.90;2.80;;;31.60;24.10;;;;;;21088298;28;20108;-57
2023/07/14 21:49:22;;;;;;;4.53;3.03;;;31.50;24.40;;;;;;21086538;28;20044;-58
2023/07/14 21:59:23;;;;;;;4.80;2.20;;;31.30;24.70;;;;;;21086955;28;20504;-58
2023/07/14 22:09:25;;;;;;;2.50;1.80;;;31.10;24.60;;;;;;21086145;28;20083;-57
2023/07/14 22:19:26;;;;;;;3.85;2.40;;;31.00;24.90;;;;;;21085223;28;20093;-56
2023/07/14 22:29:27;;;;;;;3.60;1.80;;;30.60;25.30;;;;;;21083863;28;20040;-56
2023/07/14 22:39:28;;;;;;;3.97;1.77;;;30.60;25.60;;;;;;21083069;28;20044;-56
2023/07/14 22:49:28;;;;;;;3.30;1.83;;;30.40;25.80;;;;;;21083130;28;20374;-56
2023/07/14 22:59:29;;;;;;;3.75;1.50;;;30.40;25.90;;;;;;21082606;28;20068;-58
2023/07/14 23:09:30;;;;;;;6.13;1.50;;;30.30;26.20;;;;;;21081983;28;20093;-57
2023/07/14 23:19:31;;;;;;;3.00;1.92;;;30.20;25.90;;;;;;21079754;28;20048;-58
2023/07/14 23:29:32;;;;;;;2.97;1.50;;;30.10;26.20;;;;;;21080745;28;20458;-58
2023/07/14 23:39:32;;;;;;;5.60;2.40;;;30.10;26.00;;;;;;21080243;28;20068;-57
2023/07/14 23:49:33;;;;;;;4.30;2.42;;;29.90;26.40;;;;;;21079261;28;20044;-55
2023/07/14 23:59:35;;;;;;;4.82;2.40;;;29.60;26.10;;;;;;21077971;28;20044;-56
